This is the latest recevied weather packets stored in our database for station/object PY2FLB-13. If no packets are shown the sender has not sent any weather packets the latest 10 day(s).
| Time | Temp. | Humidity | Pressure | Rain* | Wind** | Luminosity | Snow |
|---|---|---|---|---|---|---|---|
| 1777581803 | 31.11° C | 43% | 1010.9 hPa | - | - | - | - |
| 1777581503 | 31.11° C | 43% | 1010.9 hPa | - | - | - | - |
| 1777581203 | 31.11° C | 42% | 1010.9 hPa | - | - | - | - |
| 1777580903 | 31.11° C | 42% | 1010.9 hPa | - | - | - | - |
| 1777580603 | 31.11° C | 42% | 1010.9 hPa | - | - | - | - |
| 1777580303 | 31.11° C | 42% | 1010.9 hPa | - | - | - | - |
| 1777463394 | 26.11° C | 62% | 1013.7 hPa | - | - | - | - |
| 1777463095 | 26.11° C | 62% | 1013.6 hPa | - | - | - | - |
| 1777462794 | 25.56° C | 63% | 1013.7 hPa | - | - | - | - |
| 1777462494 | 26.11° C | 63% | 1013.6 hPa | - | - | - | - |
| 1777462194 | 25.56° C | 64% | 1013.7 hPa | - | - | - | - |
| 1777461894 | 25.56° C | 64% | 1013.7 hPa | - | - | - | - |
| 1777461594 | 25.56° C | 64% | 1013.7 hPa | - | - | - | - |
| 1777461294 | 25.56° C | 64% | 1013.7 hPa | - | - | - | - |
| 1777460994 | 25° C | 66% | 1013.8 hPa | - | - | - | - |
| 1777460694 | 25° C | 65% | 1013.7 hPa | - | - | - | - |
| 1777460394 | 25° C | 66% | 1013.6 hPa | - | - | - | - |
| 1777460094 | 24.44° C | 67% | 1013.7 hPa | - | - | - | - |
| 1777459794 | 25° C | 67% | 1013.6 hPa | - | - | - | - |
| 1777459494 | 24.44° C | 67% | 1013.6 hPa | - | - | - | - |
| 1777459195 | 24.44° C | 67% | 1013.5 hPa | - | - | - | - |
| 1777458894 | 24.44° C | 68% | 1013.5 hPa | - | - | - | - |
| 1777458594 | 25° C | 66% | 1013.4 hPa | - | - | - | - |
| 1777458295 | 25° C | 66% | 1013.3 hPa | - | - | - | - |
| 1777457994 | 25° C | 66% | 1013.2 hPa | - | - | - | - |
* Rain since midnight (hover to see other rain measurements)
** Current wind speed in m/s (hover to see current wind gust speed)